Time;durP1;ratioP1;P1;durP2;ratioP2;P2;SDS_P1;SDS_P2;PMS_P1;PMS_P2;Temp;Humidity;BMP_temperature;BMP_pressure;BME280_temperature;BME280_humidity;BME280_pressure;Samples;Min_cycle;Max_cycle;Signal;HPM_P1;HPM_P2
2021/05/13 00:01:42;;;;;;;6.40;3.13;;;;;;;-145.50;100.00;65435.88;5000567;28;20088;-74
2021/05/13 00:04:29;;;;;;;7.95;2.88;;;;;;;-145.50;100.00;65435.88;4982966;28;20584;-74
2021/05/13 00:07:17;;;;;;;9.10;3.45;;;;;;;-145.50;100.00;65435.88;4997731;28;20085;-74
2021/05/13 00:10:05;;;;;;;5.93;2.70;;;;;;;-145.50;100.00;65435.88;4984936;28;20494;-74
2021/05/13 00:12:57;;;;;;;8.40;3.15;;;;;;;-145.50;100.00;65435.88;4997103;28;20470;-74
2021/05/13 00:15:45;;;;;;;9.02;3.30;;;;;;;-145.50;100.00;65435.88;4989212;28;20096;-75
2021/05/13 00:18:33;;;;;;;;;;;;;;;-145.50;100.00;65435.88;5000677;28;20063;-74
2021/05/13 00:21:21;;;;;;;8.80;3.60;;;;;;;-145.50;100.00;65435.88;4985442;28;19925;-75
2021/05/13 00:24:10;;;;;;;7.88;3.45;;;;;;;-145.50;100.00;65435.88;4997224;28;20053;-74
2021/05/13 00:27:01;;;;;;;7.78;3.60;;;;;;;-145.50;100.00;65435.88;4993888;28;20451;-74
2021/05/13 00:29:49;;;;;;;7.20;3.70;;;;;;;-145.50;100.00;65435.88;4993873;28;20107;-75
2021/05/13 00:32:37;;;;;;;10.83;4.07;;;;;;;-145.50;100.00;65435.88;4987970;28;20077;-74
2021/05/13 00:35:25;;;;;;;9.50;3.72;;;;;;;-145.50;100.00;65435.88;4991931;28;20107;-74
2021/05/13 00:38:12;;;;;;;9.93;3.63;;;;;;;-145.50;100.00;65435.88;4992508;28;20776;-74
2021/05/13 00:40:59;;;;;;;11.00;3.60;;;;;;;-145.50;100.00;65435.88;4995338;28;20104;-74
2021/05/13 00:43:46;;;;;;;5.50;3.10;;;;;;;-145.50;100.00;65435.88;4990993;28;20081;-74
2021/05/13 00:46:33;;;;;;;9.98;3.70;;;;;;;-145.50;100.00;65435.88;4993422;28;20054;-74
2021/05/13 00:49:23;;;;;;;10.43;4.00;;;;;;;-145.50;100.00;65435.88;4986785;28;20058;-74
2021/05/13 00:52:10;;;;;;;8.88;3.85;;;;;;;-145.50;100.00;65435.88;5002446;28;20378;-74
2021/05/13 00:54:59;;;;;;;6.78;3.72;;;;;;;-145.50;100.00;65435.88;4988961;28;20046;-74
2021/05/13 00:57:50;;;;;;;6.53;3.22;;;;;;;-145.50;100.00;65435.88;5000631;28;20112;-74
2021/05/13 01:03:45;;;;;;;10.00;4.30;;;;;;;-145.50;100.00;65435.88;4994629;28;20045;-74
2021/05/13 01:07:11;;;;;;;7.85;3.85;;;;;;;-145.50;100.00;65435.88;4999390;28;20046;-74
2021/05/13 01:09:59;;;;;;;7.28;3.33;;;;;;;-145.50;100.00;65435.88;4993850;28;20042;-75
2021/05/13 01:12:47;;;;;;;14.75;4.32;;;;;;;-145.50;100.00;65435.88;4990034;28;20112;-74
2021/05/13 01:15:50;;;;;;;;;;;;;;;-145.50;100.00;65435.88;4988037;28;20050;-74
2021/05/13 01:18:38;;;;;;;8.65;3.50;;;;;;;-145.50;100.00;65435.88;4985669;28;19972;-75
2021/05/13 01:21:25;;;;;;;9.10;3.75;;;;;;;-145.50;100.00;65435.88;5000206;28;20107;-74
2021/05/13 01:24:12;;;;;;;12.13;4.13;;;;;;;-145.50;100.00;65435.88;4979865;28;20054;-75
2021/05/13 01:27:07;;;;;;;12.10;4.60;;;;;;;-145.50;100.00;65435.88;4997839;28;20403;-74
2021/05/13 01:29:56;;;;;;;6.97;3.28;;;;;;;-145.50;100.00;65435.88;4983614;28;20517;-74
2021/05/13 01:32:44;;;;;;;11.18;3.80;;;;;;;-145.50;100.00;65435.88;5000535;28;20132;-74
2021/05/13 01:35:31;;;;;;;11.37;4.27;;;;;;;-145.50;100.00;65435.88;4990803;28;20081;-74
2021/05/13 01:38:26;;;;;;;12.68;3.67;;;;;;;-145.50;100.00;65435.88;4995537;28;20343;-74
2021/05/13 01:41:17;;;;;;;9.40;3.67;;;;;;;-145.50;100.00;65435.88;4988188;28;20143;-74
2021/05/13 01:44:05;;;;;;;8.82;3.65;;;;;;;-145.50;100.00;65435.88;4990258;28;20073;-74
2021/05/13 01:46:52;;;;;;;8.20;3.37;;;;;;;-145.50;100.00;65435.88;4997243;28;20087;-74
2021/05/13 01:49:41;;;;;;;9.30;4.00;;;;;;;-145.50;100.00;65435.88;4992298;28;20307;-74
2021/05/13 01:52:29;;;;;;;9.15;4.00;;;;;;;-145.50;100.00;65435.88;4995047;28;20116;-74
2021/05/13 01:55:16;;;;;;;9.38;4.00;;;;;;;-145.50;100.00;65435.88;4991725;28;20065;-74
2021/05/13 01:58:04;;;;;;;11.68;4.03;;;;;;;-145.50;100.00;65435.88;4993337;28;20460;-74
2021/05/13 02:00:51;;;;;;;7.63;3.35;;;;;;;-145.50;100.00;65435.88;4998538;28;20115;-75
2021/05/13 02:03:42;;;;;;;11.48;3.80;;;;;;;-145.50;100.00;65435.88;4993557;28;20106;-74
2021/05/13 02:06:30;;;;;;;9.15;3.85;;;;;;;-145.50;100.00;65435.88;4993559;28;20120;-74
2021/05/13 02:09:18;;;;;;;6.77;3.33;;;;;;;-145.50;100.00;65435.88;4992870;28;20097;-74
2021/05/13 02:12:05;;;;;;;10.20;3.50;;;;;;;-145.50;100.00;65435.88;4984038;28;20760;-74
2021/05/13 02:14:53;;;;;;;8.05;3.95;;;;;;;-145.50;100.00;65435.88;4994654;28;20089;-74
2021/05/13 02:17:40;;;;;;;6.80;3.58;;;;;;;-145.50;100.00;65435.88;4993125;28;20095;-75
2021/05/13 02:20:30;;;;;;;7.90;3.58;;;;;;;-145.50;100.00;65435.88;4994814;28;20145;-74
2021/05/13 02:23:17;;;;;;;8.45;3.50;;;;;;;-145.50;100.00;65435.88;4979005;28;20481;-74
2021/05/13 02:26:05;;;;;;;7.50;3.63;;;;;;;-145.50;100.00;65435.88;4991633;28;20140;-74
2021/05/13 02:28:53;;;;;;;6.63;3.60;;;;;;;-145.50;100.00;65435.88;4979185;28;20085;-74
2021/05/13 02:31:40;;;;;;;8.10;3.87;;;;;;;-145.50;100.00;65435.88;4995743;28;20138;-75
2021/05/13 02:34:27;;;;;;;7.30;3.63;;;;;;;-145.50;100.00;65435.88;4987077;28;20050;-74
2021/05/13 02:37:14;;;;;;;6.53;3.50;;;;;;;-145.50;100.00;65435.88;4994146;28;20169;-74
2021/05/13 02:40:02;;;;;;;10.13;3.92;;;;;;;-145.50;100.00;65435.88;4980681;28;20103;-74
2021/05/13 02:42:49;;;;;;;8.18;3.58;;;;;;;-145.50;100.00;65435.88;4998467;28;20090;-74
2021/05/13 02:45:36;;;;;;;7.45;3.97;;;;;;;-145.50;100.00;65435.88;4989862;28;20459;-74
2021/05/13 02:48:23;;;;;;;7.05;3.65;;;;;;;-145.50;100.00;65435.88;4991824;28;20054;-75
2021/05/13 02:51:10;;;;;;;9.15;4.15;;;;;;;-145.50;100.00;65435.88;4987106;28;20147;-74
2021/05/13 02:53:58;;;;;;;7.40;3.90;;;;;;;-145.50;100.00;65435.88;4986389;28;20046;-74
2021/05/13 02:56:45;;;;;;;7.75;3.83;;;;;;;-145.50;100.00;65435.88;4989532;28;20104;-74
2021/05/13 02:59:43;;;;;;;6.43;3.80;;;;;;;-145.50;100.00;65435.88;4994677;28;20081;-74
2021/05/13 03:03:07;;;;;;;10.27;4.13;;;;;;;-145.50;100.00;65435.88;4991386;28;20088;-74
2021/05/13 03:05:55;;;;;;;11.07;3.58;;;;;;;-145.50;100.00;65435.88;4991637;28;20081;-74
2021/05/13 03:08:42;;;;;;;6.20;3.25;;;;;;;-145.50;100.00;65435.88;4980014;28;20089;-74
2021/05/13 03:11:30;;;;;;;7.28;3.67;;;;;;;-145.50;100.00;65435.88;4996883;28;20069;-74
2021/05/13 03:14:17;;;;;;;8.15;3.83;;;;;;;-145.50;100.00;65435.88;4983031;28;20049;-74
2021/05/13 03:17:04;;;;;;;8.68;3.63;;;;;;;-145.50;100.00;65435.88;4998984;28;20054;-74
2021/05/13 03:19:57;;;;;;;7.95;3.60;;;;;;;-145.50;100.00;65435.88;4984107;28;20947;-74
2021/05/13 03:22:47;;;;;;;9.38;4.53;;;;;;;-145.50;100.00;65435.88;4994049;28;20128;-74
2021/05/13 03:25:36;;;;;;;6.97;3.80;;;;;;;-145.50;100.00;65435.88;4994158;28;20049;-74
2021/05/13 03:28:23;;;;;;;7.35;4.30;;;;;;;-145.50;100.00;65435.88;4996439;28;20450;-74
2021/05/13 03:31:11;;;;;;;7.85;4.00;;;;;;;-145.50;100.00;65435.88;4991403;28;20104;-73
2021/05/13 03:33:58;;;;;;;8.15;4.00;;;;;;;-145.50;100.00;65435.88;4987855;28;20623;-73
2021/05/13 03:36:45;;;;;;;8.17;3.93;;;;;;;-145.50;100.00;65435.88;4994487;28;20057;-74
2021/05/13 03:39:32;;;;;;;9.40;3.90;;;;;;;-145.50;100.00;65435.88;4999533;28;20112;-74
2021/05/13 03:42:20;;;;;;;7.35;4.18;;;;;;;-145.50;100.00;65435.88;4982053;28;20086;-74
2021/05/13 03:45:07;;;;;;;11.68;4.30;;;;;;;-145.50;100.00;65435.88;4996087;28;20053;-74
2021/05/13 03:47:54;;;;;;;10.75;4.97;;;;;;;-145.50;100.00;65435.88;4987078;28;20112;-74
2021/05/13 03:50:42;;;;;;;10.88;4.72;;;;;;;-145.50;100.00;65435.88;5004316;28;20096;-74
2021/05/13 03:53:29;;;;;;;7.00;4.20;;;;;;;-145.50;100.00;65435.88;4993319;28;20160;-74
2021/05/13 03:56:16;;;;;;;10.85;4.18;;;;;;;-145.50;100.00;65435.88;5005355;28;20073;-74
2021/05/13 03:59:12;;;;;;;8.90;3.75;;;;;;;-145.50;100.00;65435.88;4995568;28;20100;-73
2021/05/13 04:02:11;;;;;;;8.55;4.47;;;;;;;-145.50;100.00;65435.88;5002472;28;20537;-73
2021/05/13 04:04:58;;;;;;;12.38;5.57;;;;;;;-145.50;100.00;65435.88;4993629;28;20500;-74
2021/05/13 04:07:53;;;;;;;8.68;5.30;;;;;;;-145.50;100.00;65435.88;5003652;28;20085;-74
2021/05/13 04:10:41;;;;;;;9.18;5.60;;;;;;;-145.50;100.00;65435.88;4990929;28;20429;-74
2021/05/13 04:13:30;;;;;;;8.67;5.43;;;;;;;-145.50;100.00;65435.88;4994932;28;20553;-73
2021/05/13 04:16:25;;;;;;;10.52;5.68;;;;;;;-145.50;100.00;65435.88;4996461;28;20053;-73
2021/05/13 04:19:12;;;;;;;8.00;5.30;;;;;;;-145.50;100.00;65435.88;5001647;28;20066;-74
2021/05/13 04:21:59;;;;;;;8.40;5.45;;;;;;;-145.50;100.00;65435.88;4998174;28;20081;-73
2021/05/13 04:24:46;;;;;;;10.55;5.60;;;;;;;-145.50;100.00;65435.88;4996372;28;20177;-74
2021/05/13 04:27:34;;;;;;;11.43;6.45;;;;;;;-145.50;100.00;65435.88;4990817;28;20108;-74
2021/05/13 04:30:21;;;;;;;13.02;6.32;;;;;;;-145.50;100.00;65435.88;5002009;28;20097;-74
2021/05/13 04:33:08;;;;;;;12.60;7.07;;;;;;;-145.50;100.00;65435.88;4997853;28;21442;-74
2021/05/13 04:35:56;;;;;;;16.77;7.35;;;;;;;-145.50;100.00;65435.88;4997223;28;20054;-74
2021/05/13 04:38:43;;;;;;;10.65;6.75;;;;;;;-145.50;100.00;65435.88;4994425;28;20073;-75
2021/05/13 04:41:31;;;;;;;13.75;6.63;;;;;;;-145.50;100.00;65435.88;4997734;28;20046;-75
2021/05/13 04:44:18;;;;;;;11.10;6.82;;;;;;;-145.50;100.00;65435.88;5004621;28;20137;-75
2021/05/13 04:50:12;;;;;;;14.80;7.45;;;;;;;-145.50;100.00;65435.88;5004672;28;20054;-75
2021/05/13 04:53:04;;;;;;;13.73;7.40;;;;;;;-145.50;100.00;65435.88;4991290;28;20081;-75
2021/05/13 04:55:51;;;;;;;13.35;7.43;;;;;;;-145.50;100.00;65435.88;5000127;28;20049;-75
2021/05/13 04:58:38;;;;;;;16.70;8.30;;;;;;;-145.50;100.00;65435.88;4995810;28;20061;-75
2021/05/13 05:01:26;;;;;;;15.90;7.90;;;;;;;-145.50;100.00;65435.88;5003145;28;20132;-74
2021/05/13 05:04:13;;;;;;;15.45;7.95;;;;;;;-145.50;100.00;65435.88;4995024;28;20872;-75
2021/05/13 05:07:00;;;;;;;14.95;8.52;;;;;;;-145.50;100.00;65435.88;4986952;28;20158;-75
2021/05/13 05:09:47;;;;;;;13.43;8.65;;;;;;;-145.50;100.00;65435.88;4991594;28;20132;-75
2021/05/13 05:12:34;;;;;;;14.43;8.55;;;;;;;-145.50;100.00;65435.88;4998148;28;20540;-75
2021/05/13 05:15:21;;;;;;;17.33;8.82;;;;;;;-145.50;100.00;65435.88;4998095;28;20161;-74
2021/05/13 05:18:08;;;;;;;17.42;9.85;;;;;;;-145.50;100.00;65435.88;4999747;28;20061;-74
2021/05/13 05:20:55;;;;;;;16.33;9.85;;;;;;;-145.50;100.00;65435.88;4993493;28;20062;-75
2021/05/13 05:23:43;;;;;;;15.82;10.32;;;;;;;-145.50;100.00;65435.88;4994921;28;20054;-75
2021/05/13 05:26:30;;;;;;;23.00;11.13;;;;;;;-145.50;100.00;65435.88;4993214;28;20135;-75
2021/05/13 05:29:17;;;;;;;20.15;10.55;;;;;;;-145.50;100.00;65435.88;5002652;28;20057;-75
2021/05/13 05:32:05;;;;;;;17.40;10.60;;;;;;;-145.50;100.00;65435.88;4990816;28;20058;-75
2021/05/13 05:34:52;;;;;;;18.40;11.25;;;;;;;-145.50;100.00;65435.88;4996160;28;20139;-74
2021/05/13 05:37:41;;;;;;;18.40;11.07;;;;;;;-145.50;100.00;65435.88;4987771;28;20077;-75
2021/05/13 05:40:29;;;;;;;19.05;12.32;;;;;;;-145.50;100.00;65435.88;5003368;28;20061;-75
2021/05/13 05:43:19;;;;;;;19.08;12.27;;;;;;;-145.50;100.00;65435.88;4989926;28;20085;-75
2021/05/13 05:46:06;;;;;;;18.98;11.60;;;;;;;-145.50;100.00;65435.88;5000740;28;20069;-75
2021/05/13 05:48:55;;;;;;;19.50;12.48;;;;;;;-145.50;100.00;65435.88;4989310;28;20085;-75
2021/05/13 05:51:42;;;;;;;20.88;11.93;;;;;;;-145.50;100.00;65435.88;4996464;28;20532;-75
2021/05/13 05:54:29;;;;;;;25.17;14.07;;;;;;;-145.50;100.00;65435.88;5008880;28;20057;-75
2021/05/13 05:57:17;;;;;;;24.48;13.75;;;;;;;-145.50;100.00;65435.88;4997064;28;20075;-75
2021/05/13 06:00:05;;;;;;;17.13;12.45;;;;;;;-145.50;100.00;65435.88;4993064;28;20062;-75
2021/05/13 06:03:03;;;;;;;22.02;13.43;;;;;;;-145.50;100.00;65435.88;4989292;28;20481;-75
2021/05/13 06:05:50;;;;;;;21.10;14.73;;;;;;;-145.50;100.00;65435.88;4997980;28;20062;-75
2021/05/13 06:08:37;;;;;;;23.58;16.13;;;;;;;-145.50;100.00;65435.88;5000902;28;20093;-74
2021/05/13 06:11:24;;;;;;;23.60;17.52;;;;;;;-145.50;100.00;65435.88;5007250;28;20077;-74
2021/05/13 06:14:12;;;;;;;24.65;17.38;;;;;;;-145.50;100.00;65435.88;5001557;28;20049;-75
2021/05/13 06:16:59;;;;;;;21.00;16.38;;;;;;;-145.50;100.00;65435.88;4982364;28;20053;-75
2021/05/13 06:19:47;;;;;;;24.00;19.93;;;;;;;-145.50;100.00;65435.88;4997615;28;20054;-74
2021/05/13 06:22:34;;;;;;;25.10;19.98;;;;;;;-145.50;100.00;65435.88;4992189;28;20058;-75
2021/05/13 06:25:22;;;;;;;27.30;21.40;;;;;;;-145.50;100.00;65435.88;5001448;28;20058;-75
2021/05/13 06:28:09;;;;;;;25.13;20.20;;;;;;;-145.50;100.00;65435.88;4993778;28;20054;-75
2021/05/13 06:30:57;;;;;;;26.08;20.25;;;;;;;-145.50;100.00;65435.88;4994991;28;20046;-75
2021/05/13 06:33:44;;;;;;;28.40;20.27;;;;;;;-145.50;100.00;65435.88;4991374;28;20053;-75
2021/05/13 06:36:31;;;;;;;31.02;21.95;;;;;;;-145.50;100.00;65435.88;4996345;28;20050;-75
2021/05/13 06:39:18;;;;;;;31.77;22.65;;;;;;;-145.50;100.00;65435.88;4996624;28;20050;-75
2021/05/13 06:42:05;;;;;;;26.25;22.00;;;;;;;-145.50;100.00;65435.88;4998308;28;20115;-74
2021/05/13 06:44:52;;;;;;;26.55;21.83;;;;;;;-145.50;100.00;65435.88;4991989;28;20049;-74
2021/05/13 06:47:40;;;;;;;26.38;19.92;;;;;;;-145.50;100.00;65435.88;4995587;28;20076;-74
2021/05/13 06:50:28;;;;;;;23.58;20.73;;;;;;;-145.50;100.00;65435.88;4995225;28;20053;-74
2021/05/13 06:53:15;;;;;;;26.77;17.90;;;;;;;-145.50;100.00;65435.88;4996083;28;20050;-74
2021/05/13 06:56:02;;;;;;;25.63;20.63;;;;;;;-145.50;100.00;65435.88;5000129;28;20120;-75
2021/05/13 06:58:50;;;;;;;24.70;19.50;;;;;;;-145.50;100.00;65435.88;4998011;28;20062;-74
2021/05/13 07:01:37;;;;;;;23.65;18.08;;;;;;;-145.50;100.00;65435.88;4992535;28;21122;-75
2021/05/13 07:04:26;;;;;;;21.83;16.80;;;;;;;-145.50;100.00;65435.88;5018632;28;20687;-74
2021/05/13 07:07:14;;;;;;;21.00;16.25;;;;;;;-145.50;100.00;65435.88;4997948;28;20054;-74
2021/05/13 07:10:01;;;;;;;20.02;14.93;;;;;;;-145.50;100.00;65435.88;4994634;28;20137;-74
2021/05/13 07:12:49;;;;;;;23.42;17.95;;;;;;;-145.50;100.00;65435.88;4996969;28;20107;-74
2021/05/13 07:15:50;;;;;;;23.92;17.85;;;;;;;-145.50;100.00;65435.88;4994971;28;20423;-74
2021/05/13 07:18:38;;;;;;;25.87;19.07;;;;;;;-145.50;100.00;65435.88;5001936;28;20482;-74
2021/05/13 07:21:25;;;;;;;30.10;17.83;;;;;;;-145.50;100.00;65435.88;4990320;28;20058;-74
2021/05/13 07:24:13;;;;;;;25.58;17.92;;;;;;;-145.50;100.00;65435.88;5003115;28;20089;-74
2021/05/13 07:27:00;;;;;;;29.23;18.37;;;;;;;-145.50;100.00;65435.88;4990177;28;20054;-74
2021/05/13 07:29:47;;;;;;;25.50;18.70;;;;;;;-145.50;100.00;65435.88;5002752;28;20137;-74
2021/05/13 07:32:34;;;;;;;23.35;17.98;;;;;;;-145.50;100.00;65435.88;4995686;28;20103;-74
2021/05/13 07:35:22;;;;;;;26.52;19.40;;;;;;;-145.50;100.00;65435.88;5004048;28;20107;-74
2021/05/13 07:38:10;;;;;;;25.27;18.08;;;;;;;-145.50;100.00;65435.88;4997210;28;20143;-74
2021/05/13 07:40:59;;;;;;;23.02;17.30;;;;;;;-145.50;100.00;65435.88;4999578;28;20123;-73
2021/05/13 07:43:49;;;;;;;25.95;19.58;;;;;;;-145.50;100.00;65435.88;4994651;28;20486;-74
2021/05/13 07:46:39;;;;;;;28.15;19.63;;;;;;;-145.50;100.00;65435.88;5000761;28;20135;-74
2021/05/13 07:49:38;;;;;;;27.60;21.27;;;;;;;-145.50;100.00;65435.88;4996165;28;20468;-75
2021/05/13 07:52:31;;;;;;;30.05;20.83;;;;;;;-145.50;100.00;65435.88;4996054;28;20050;-75
2021/05/13 07:55:19;;;;;;;25.33;19.95;;;;;;;-145.50;100.00;65435.88;4988406;28;20138;-74
2021/05/13 07:58:07;;;;;;;26.77;21.87;;;;;;;-145.50;100.00;65435.88;5001080;28;20050;-75
2021/05/13 08:00:55;;;;;;;30.05;21.65;;;;;;;-145.50;100.00;65435.88;4986951;28;20422;-74
2021/05/13 08:03:42;;;;;;;31.27;22.42;;;;;;;-145.50;100.00;65435.88;5006269;28;20069;-74
2021/05/13 08:06:31;;;;;;;29.73;22.85;;;;;;;-145.50;100.00;65435.88;4996974;28;20413;-74
2021/05/13 08:09:23;;;;;;;27.98;21.77;;;;;;;-145.50;100.00;65435.88;4995594;28;20085;-74
2021/05/13 08:12:13;;;;;;;28.35;21.70;;;;;;;-145.50;100.00;65435.88;4992136;28;20084;-74
2021/05/13 08:15:01;;;;;;;27.52;22.10;;;;;;;-145.50;100.00;65435.88;4997405;28;20081;-73
2021/05/13 08:17:49;;;;;;;27.33;22.63;;;;;;;-145.50;100.00;65435.88;4998873;28;20058;-73
2021/05/13 08:20:40;;;;;;;;;;;;;;;-145.50;100.00;65435.88;5003806;28;20115;-74
2021/05/13 08:23:28;;;;;;;30.48;23.17;;;;;;;-145.50;100.00;65435.88;4988556;28;19929;-74
2021/05/13 08:26:15;;;;;;;27.60;23.77;;;;;;;-145.50;100.00;65435.88;4995763;28;20143;-74
2021/05/13 08:29:02;;;;;;;26.80;22.92;;;;;;;-145.50;100.00;65435.88;4999043;28;20050;-74
2021/05/13 08:31:50;;;;;;;30.95;23.13;;;;;;;-145.50;100.00;65435.88;4998791;28;20126;-74
2021/05/13 08:35:09;;;;;;;30.70;22.58;;;;;;;-145.50;100.00;65435.88;4999494;28;20160;-74
2021/05/13 08:37:57;;;;;;;28.10;22.52;;;;;;;-145.50;100.00;65435.88;4999635;28;20058;-75
2021/05/13 08:41:22;;;;;;;30.73;23.17;;;;;;;-145.50;100.00;65435.88;4993092;28;20089;-74
2021/05/13 08:44:11;;;;;;;27.50;22.65;;;;;;;-145.50;100.00;65435.88;5006760;28;20528;-75
2021/05/13 08:47:05;;;;;;;28.05;23.25;;;;;;;-145.50;100.00;65435.88;4996279;28;20434;-75
2021/05/13 08:50:02;;;;;;;28.35;22.30;;;;;;;-145.50;100.00;65435.88;4991733;28;20061;-75
2021/05/13 08:52:50;;;;;;;28.77;22.15;;;;;;;-145.50;100.00;65435.88;4994564;28;20094;-74
2021/05/13 08:55:37;;;;;;;26.90;21.25;;;;;;;-145.50;100.00;65435.88;5001319;28;20080;-75
2021/05/13 08:59:05;;;;;;;23.90;19.75;;;;;;;-145.50;100.00;65435.88;5000061;28;20057;-75
2021/05/13 09:02:31;;;;;;;25.20;20.63;;;;;;;-145.50;100.00;65435.88;4998605;28;20061;-75
2021/05/13 09:05:08;;;;;;;28.75;20.10;;;;;;;16.94;52.57;101080.19;4986926;28;20133;-75
2021/05/13 09:08:33;;;;;;;27.23;20.20;;;;;;;-145.50;100.00;65435.88;4997340;28;20490;-75
2021/05/13 09:12:01;;;;;;;26.30;21.75;;;;;;;-145.50;100.00;65435.88;5003365;28;20089;-75
2021/05/13 09:15:00;;;;;;;27.92;22.80;;;;;;;-145.50;100.00;65435.88;4997563;28;20167;-76
2021/05/13 09:17:50;;;;;;;24.20;19.10;;;;;;;-145.50;100.00;65435.88;4999039;28;20112;-74
2021/05/13 09:21:28;;;;;;;26.55;18.45;;;;;;;-145.50;100.00;65435.88;4985833;28;20062;-75
2021/05/13 09:24:10;;;;;;;29.02;22.95;;;;;;;16.94;52.57;101080.19;4992900;28;20048;-74
2021/05/13 09:27:41;;;;;;;30.27;23.90;;;;;;;-145.50;100.00;65435.88;4995743;28;20485;-73
2021/05/13 09:30:32;;;;;;;27.60;20.75;;;;;;;-145.50;100.00;65435.88;4992772;28;20061;-74
2021/05/13 09:34:02;;;;;;;25.98;20.50;;;;;;;-145.50;100.00;65435.88;4993438;28;20046;-75
2021/05/13 09:37:00;;;;;;;22.25;18.90;;;;;;;-145.50;100.00;65435.88;4993671;28;20122;-74
2021/05/13 09:39:54;;;;;;;29.33;20.27;;;;;;;-145.50;100.00;65435.88;5001283;28;20457;-74
2021/05/13 09:43:07;;;;;;;24.40;20.23;;;;;;;-145.50;100.00;65435.88;4997698;28;20081;-74
2021/05/13 09:46:50;;;;;;;23.70;20.35;;;;;;;-145.50;100.00;65435.88;4997247;28;20147;-74
2021/05/13 09:50:19;;;;;;;28.88;20.35;;;;;;;-145.50;100.00;65435.88;4996598;28;20081;-74
2021/05/13 09:54:07;;;;;;;21.33;19.13;;;;;;;-145.50;100.00;65435.88;5001747;28;20049;-74
2021/05/13 09:57:28;;;;;;;15.65;12.95;;;;;;;-145.50;100.00;65435.88;5000201;28;20058;-74
2021/05/13 10:00:53;;;;;;;20.60;15.75;;;;;;;-145.50;100.00;65435.88;4993008;28;20060;-74
2021/05/13 10:04:19;;;;;;;25.92;18.73;;;;;;;-145.50;100.00;65435.88;5000766;28;20144;-74
2021/05/13 10:07:44;;;;;;;24.02;16.45;;;;;;;-145.50;100.00;65435.88;5001932;28;20128;-74
2021/05/13 10:10:59;;;;;;;18.15;13.32;;;;;;;-145.50;100.00;65435.88;4993689;28;20837;-75
2021/05/13 10:13:47;;;;;;;17.42;12.68;;;;;;;-145.50;100.00;65435.88;5005357;28;20509;-75
2021/05/13 10:16:34;;;;;;;17.75;13.13;;;;;;;-145.50;100.00;65435.88;4988756;28;20116;-75
2021/05/13 10:19:27;;;;;;;16.00;12.65;;;;;;;-145.50;100.00;65435.88;5003236;28;20059;-75
2021/05/13 10:22:16;;;;;;;16.20;12.00;;;;;;;-145.50;100.00;65435.88;4994476;28;20081;-75
2021/05/13 10:25:26;;;;;;;18.08;12.77;;;;;;;-145.50;100.00;65435.88;5002162;28;20082;-75
2021/05/13 10:28:16;;;;;;;14.45;11.30;;;;;;;-145.50;100.00;65435.88;4987695;28;20086;-75
2021/05/13 10:31:05;;;;;;;16.20;10.80;;;;;;;-145.50;100.00;65435.88;4992199;28;20088;-75
2021/05/13 10:34:03;;;;;;;13.55;11.35;;;;;;;-145.50;100.00;65435.88;4990617;28;20058;-75
2021/05/13 10:37:07;;;;;;;13.32;10.05;;;;;;;-145.50;100.00;65435.88;5001872;28;20090;-75
2021/05/13 10:40:08;;;;;;;17.00;9.88;;;;;;;-145.50;100.00;65435.88;4998050;28;20066;-75
2021/05/13 10:43:05;;;;;;;15.25;11.48;;;;;;;-145.50;100.00;65435.88;5019029;28;20057;-74
2021/05/13 10:45:52;;;;;;;;;;;;;;;-145.50;100.00;65435.88;4998098;28;20092;-75
2021/05/13 10:48:40;;;;;;;12.65;10.10;;;;;;;-145.50;100.00;65435.88;4997382;28;19930;-75
2021/05/13 10:51:28;;;;;;;15.55;9.45;;;;;;;-145.50;100.00;65435.88;4997641;28;20139;-75
2021/05/13 10:54:27;;;;;;;11.68;7.85;;;;;;;-145.50;100.00;65435.88;5018156;28;20053;-76
2021/05/13 10:58:23;;;;;;;13.35;8.88;;;;;;;-145.50;100.00;65435.88;4993027;28;20065;-76
2021/05/13 11:01:47;;;;;;;11.43;5.50;;;;;;;16.94;52.57;101080.19;5003237;28;20188;-75
2021/05/13 11:04:35;;;;;;;12.35;7.60;;;;;;;16.94;52.57;101080.19;5005274;28;20042;-76
2021/05/13 11:07:33;;;;;;;12.95;9.15;;;;;;;16.94;52.57;101080.19;5003140;28;20056;-75
2021/05/13 11:10:52;;;;;;;13.80;8.98;;;;;;;16.94;52.57;101080.19;4994631;28;20046;-75
2021/05/13 11:14:11;;;;;;;15.63;9.63;;;;;;;16.94;64.92;101080.19;4990544;28;20085;-75
2021/05/13 11:16:53;;;;;;;11.02;7.85;;;;;;;16.94;52.57;101080.19;5005529;28;20129;-73
2021/05/13 11:19:24;;;;;;;12.25;6.00;;;;;;;16.94;52.57;101080.19;4992195;28;20844;-76
2021/05/13 11:22:27;;;;;;;12.60;5.82;;;;;;;16.94;52.57;101080.19;5006191;28;20053;-77
2021/05/13 11:25:14;;;;;;;10.60;5.70;;;;;;;16.94;52.57;101080.19;5008124;28;20660;-76
2021/05/13 11:27:40;;;;;;;9.95;5.50;;;;;;;25.55;30.80;100669.22;5010382;28;20062;-77
2021/05/13 11:30:31;;;;;;;13.50;9.40;;;;;;;25.55;30.80;100669.22;5005414;28;20081;-77
2021/05/13 11:33:17;;;;;;;15.70;9.27;;;;;;;25.55;30.80;100669.22;5004055;28;20058;-78
2021/05/13 11:36:46;;;;;;;9.73;7.97;;;;;;;-145.50;100.00;65435.88;5001811;28;20053;-76
2021/05/13 11:39:58;;;;;;;17.95;11.40;;;;;;;;;;4990829;28;20608;-75
2021/05/13 11:43:16;;;;;;;15.02;9.48;;;;;;;25.55;30.80;100669.22;4996458;28;20077;-76
2021/05/13 11:46:42;;;;;;;12.63;9.85;;;;;;;-145.50;100.00;65435.88;4996737;28;20125;-75
2021/05/13 11:49:18;;;;;;;15.63;9.70;;;;;;;25.55;30.80;100669.22;4995029;28;20058;-76
2021/05/13 11:52:58;;;;;;;11.63;7.07;;;;;;;-145.50;100.00;65435.88;4995962;28;20088;-75
2021/05/13 11:55:53;;;;;;;11.80;7.82;;;;;;;-145.50;100.00;65435.88;4996710;28;20132;-75
2021/05/13 11:58:49;;;;;;;12.30;6.55;;;;;;;25.55;100.00;65435.88;4996752;28;20505;-76
2021/05/13 12:01:22;;;;;;;10.55;6.22;;;;;;;25.55;100.00;65435.88;4996320;28;20703;-75
2021/05/13 12:04:10;;;;;;;13.18;5.13;;;;;;;-145.50;100.00;65435.88;4995208;28;20050;-75
2021/05/13 12:06:44;;;;;;;10.55;4.90;;;;;;;-145.50;100.00;65435.88;4991193;28;20513;-76
2021/05/13 12:09:12;;;;;;;11.15;5.78;;;;;;;-145.50;100.00;65435.88;4997349;28;20497;-77
2021/05/13 12:11:39;;;;;;;9.07;5.82;;;;;;;-145.50;100.00;65435.88;4998080;28;20058;-75
2021/05/13 12:14:08;;;;;;;9.95;5.97;;;;;;;-145.50;100.00;65435.88;4999216;28;20109;-76
2021/05/13 12:16:36;;;;;;;13.25;6.10;;;;;;;-145.50;100.00;65435.88;4996236;28;20050;-75
2021/05/13 12:19:05;;;;;;;10.13;5.25;;;;;;;-145.50;100.00;65435.88;4996712;28;20123;-74
2021/05/13 12:21:35;;;;;;;6.60;3.30;;;;;;;-145.50;100.00;65435.88;4996336;28;20054;-75
2021/05/13 12:24:06;;;;;;;6.88;3.60;;;;;;;-145.50;100.00;65435.88;4996463;28;20042;-75
2021/05/13 12:26:36;;;;;;;7.10;4.05;;;;;;;-145.50;100.00;65435.88;4999072;28;20467;-76
2021/05/13 12:29:04;;;;;;;13.07;5.15;;;;;;;-145.50;100.00;65435.88;4991278;28;20050;-76
2021/05/13 12:31:36;;;;;;;8.15;4.28;;;;;;;-145.50;100.00;65435.88;5000118;28;20111;-75
2021/05/13 12:34:05;;;;;;;7.50;4.18;;;;;;;-145.50;100.00;65435.88;4992919;28;20061;-75
2021/05/13 12:36:36;;;;;;;9.07;4.40;;;;;;;-145.50;100.00;65435.88;4994913;28;20140;-75
2021/05/13 12:39:06;;;;;;;10.10;4.40;;;;;;;-145.50;100.00;65435.88;4994643;28;20474;-76
2021/05/13 12:41:34;;;;;;;10.00;4.25;;;;;;;-145.50;100.00;65435.88;5000356;28;20108;-75
2021/05/13 12:44:16;;;;;;;8.10;3.72;;;;;;;-145.50;100.00;65435.88;4998615;28;20050;-75
2021/05/13 12:46:48;;;;;;;8.73;4.30;;;;;;;-145.50;100.00;65435.88;4993955;28;20477;-75
2021/05/13 12:49:29;;;;;;;8.10;4.50;;;;;;;-145.50;100.00;65435.88;4993417;28;20046;-75
2021/05/13 12:52:00;;;;;;;8.23;5.43;;;;;;;-145.50;100.00;65435.88;4996124;28;20050;-75
2021/05/13 12:54:26;;;;;;;9.05;5.03;;;;;;;-145.50;100.00;65435.88;4998756;28;20058;-75
2021/05/13 12:57:09;;;;;;;9.35;5.28;;;;;;;-145.50;100.00;65435.88;4994498;28;20053;-74
2021/05/13 12:59:36;;;;;;;9.20;5.68;;;;;;;-145.50;100.00;65435.88;4995540;28;20089;-75